Time;durP1;ratioP1;P1;durP2;ratioP2;P2;SDS_P1;SDS_P2;PMS_P1;PMS_P2;Temp;Humidity;BMP_temperature;BMP_pressure;BME280_temperature;BME280_humidity;BME280_pressure;Samples;Min_cycle;Max_cycle;Signal;HPM_P1;HPM_P2
2021/07/20 00:00:46;;;;;;;13.00;8.50;;;17.60;99.90;;;;;;4995634;28;20176;-64
2021/07/20 00:03:11;;;;;;;14.17;8.70;;;17.60;99.90;;;;;;4995329;28;20180;-64
2021/07/20 00:05:39;;;;;;;11.37;8.47;;;17.50;99.90;;;;;;4995191;28;20284;-64
2021/07/20 00:08:06;;;;;;;11.70;7.67;;;17.50;99.90;;;;;;4995111;28;20191;-63
2021/07/20 00:10:37;;;;;;;13.13;9.13;;;17.50;99.90;;;;;;4995102;28;20430;-63
2021/07/20 00:13:05;;;;;;;12.67;7.80;;;17.40;99.90;;;;;;4995321;28;20415;-63
2021/07/20 00:15:31;;;;;;;11.80;7.97;;;17.50;99.90;;;;;;4995143;28;20426;-63
2021/07/20 00:17:59;;;;;;;10.53;7.70;;;17.50;99.90;;;;;;4994953;28;20417;-63
2021/07/20 00:20:27;;;;;;;11.23;7.93;;;17.40;99.90;;;;;;4995220;28;20411;-64
2021/07/20 00:22:53;;;;;;;11.63;7.00;;;17.30;99.90;;;;;;4994955;28;20443;-64
2021/07/20 00:25:19;;;;;;;12.80;8.13;;;17.30;99.90;;;;;;4994411;28;20789;-63
2021/07/20 00:27:45;;;;;;;11.30;9.13;;;17.30;99.90;;;;;;4977711;28;20403;-63
2021/07/20 00:30:13;;;;;;;13.93;9.27;;;17.30;99.90;;;;;;4994457;28;20204;-63
2021/07/20 00:32:39;;;;;;;10.73;8.50;;;17.20;99.90;;;;;;4994798;28;20415;-63
2021/07/20 00:35:06;;;;;;;12.67;8.30;;;17.20;99.90;;;;;;4995544;28;20430;-63
2021/07/20 00:37:32;;;;;;;13.20;8.70;;;17.30;99.90;;;;;;4994686;28;20419;-63
2021/07/20 00:39:58;;;;;;;12.57;7.30;;;17.20;99.90;;;;;;4994173;28;20898;-64
2021/07/20 00:42:25;;;;;;;11.57;7.93;;;17.30;99.90;;;;;;4994754;28;21019;-63
2021/07/20 00:44:51;;;;;;;12.33;7.47;;;17.30;99.90;;;;;;4994603;28;20426;-63
2021/07/20 00:47:17;;;;;;;11.50;7.80;;;17.20;99.90;;;;;;4994577;28;20470;-63
2021/07/20 00:49:43;;;;;;;15.80;8.50;;;17.20;99.90;;;;;;4994408;28;20585;-63
2021/07/20 00:52:09;;;;;;;11.67;7.70;;;17.20;99.90;;;;;;4994209;28;20494;-64
2021/07/20 00:54:36;;;;;;;10.87;8.10;;;17.20;99.90;;;;;;4994361;28;20989;-63
2021/07/20 00:57:03;;;;;;;13.73;9.17;;;17.10;99.90;;;;;;4994552;28;20199;-63
2021/07/20 00:59:29;;;;;;;11.73;7.37;;;17.00;99.90;;;;;;4994250;28;20422;-63
2021/07/20 01:01:55;;;;;;;10.83;8.20;;;17.00;99.90;;;;;;4994339;28;20405;-63
2021/07/20 01:04:22;;;;;;;13.63;7.83;;;17.00;99.90;;;;;;4994248;28;20434;-63
2021/07/20 01:06:49;;;;;;;13.97;7.70;;;17.00;99.90;;;;;;4994450;28;20521;-63
2021/07/20 01:09:15;;;;;;;9.83;6.70;;;17.00;99.90;;;;;;4993759;28;20427;-63
2021/07/20 01:11:42;;;;;;;14.27;11.17;;;16.90;99.90;;;;;;4994389;28;20413;-62
2021/07/20 01:14:08;;;;;;;14.83;8.47;;;16.80;99.90;;;;;;4994311;28;20411;-63
2021/07/20 01:16:36;;;;;;;13.03;8.13;;;16.80;99.90;;;;;;4994057;28;20454;-64
2021/07/20 01:19:06;;;;;;;13.80;7.30;;;16.80;99.90;;;;;;4993681;28;20941;-63
2021/07/20 01:21:35;;;;;;;12.73;8.07;;;16.70;99.90;;;;;;4994268;28;20429;-64
2021/07/20 01:24:05;;;;;;;9.93;6.70;;;16.70;99.90;;;;;;4993745;28;20427;-63
2021/07/20 01:26:31;;;;;;;12.37;8.40;;;16.70;99.90;;;;;;4992600;28;20458;-63
2021/07/20 01:28:57;;;;;;;10.40;7.13;;;16.60;99.90;;;;;;4993632;28;20505;-63
2021/07/20 01:31:25;;;;;;;10.03;7.13;;;16.60;99.90;;;;;;4992839;28;20184;-64
2021/07/20 01:33:54;;;;;;;11.93;8.10;;;16.60;99.90;;;;;;4994218;28;20434;-64
2021/07/20 01:36:21;;;;;;;11.87;7.27;;;16.50;99.90;;;;;;4993829;28;20555;-63
2021/07/20 01:38:50;;;;;;;9.17;6.90;;;16.50;99.90;;;;;;4993397;28;20453;-63
2021/07/20 01:41:17;;;;;;;10.13;7.27;;;16.50;99.90;;;;;;4994084;28;20888;-64
2021/07/20 01:43:51;;;;;;;12.63;8.60;;;16.50;99.90;;;;;;4994129;28;20501;-63
2021/07/20 01:46:19;;;;;;;10.17;7.40;;;16.40;99.90;;;;;;4992904;28;20461;-64
2021/07/20 01:48:48;;;;;;;9.90;7.20;;;16.40;99.90;;;;;;4993840;28;20395;-63
2021/07/20 01:51:14;;;;;;;9.53;7.67;;;16.40;99.90;;;;;;4993807;28;20793;-63
2021/07/20 01:53:41;;;;;;;12.17;7.97;;;16.30;99.90;;;;;;4993446;28;20426;-63
2021/07/20 01:56:09;;;;;;;12.23;7.40;;;16.30;99.90;;;;;;4993631;28;20472;-63
2021/07/20 01:58:42;;;;;;;9.83;7.33;;;16.20;99.90;;;;;;4993348;28;20426;-63
2021/07/20 02:01:12;;;;;;;10.30;7.97;;;16.20;99.90;;;;;;4994544;28;20422;-63
2021/07/20 02:08:59;;;;;;;11.43;6.37;;;16.20;99.90;;;;;;4997437;28;20445;-63
2021/07/20 02:11:29;;;;;;;11.50;7.40;;;16.20;99.90;;;;;;4996183;28;20449;-63
2021/07/20 02:14:02;;;;;;;10.50;6.70;;;16.10;99.90;;;;;;4997577;28;20908;-63
2021/07/20 02:16:30;;;;;;;9.57;7.70;;;16.00;99.90;;;;;;4997174;28;20462;-63
2021/07/20 02:19:11;;;;;;;9.80;6.47;;;16.00;99.90;;;;;;4997163;28;20413;-63
2021/07/20 02:21:47;;;;;;;9.17;6.37;;;16.00;99.90;;;;;;4997708;28;20821;-64
2021/07/20 02:24:15;;;;;;;12.07;7.70;;;16.00;99.90;;;;;;4996876;28;20422;-63
2021/07/20 02:26:42;;;;;;;11.90;6.93;;;16.00;99.90;;;;;;4996886;28;20450;-63
2021/07/20 02:29:09;;;;;;;10.30;6.73;;;15.90;99.90;;;;;;4997047;28;20413;-63
2021/07/20 02:31:36;;;;;;;8.57;6.53;;;15.90;99.90;;;;;;4997239;28;20768;-63
2021/07/20 02:34:03;;;;;;;11.37;7.50;;;15.80;99.90;;;;;;4997064;28;20442;-63
2021/07/20 02:36:30;;;;;;;8.80;7.30;;;15.80;99.90;;;;;;4997021;28;20516;-63
2021/07/20 02:38:57;;;;;;;17.20;9.03;;;15.80;99.90;;;;;;4996505;28;20829;-63
2021/07/20 02:41:25;;;;;;;10.80;7.30;;;15.80;99.90;;;;;;4997084;28;20407;-63
2021/07/20 02:43:53;;;;;;;12.67;8.40;;;15.90;99.90;;;;;;4996924;28;20496;-63
2021/07/20 02:46:19;;;;;;;9.47;6.90;;;15.80;99.90;;;;;;4996801;28;20437;-63
2021/07/20 02:48:45;;;;;;;10.27;6.57;;;15.80;99.90;;;;;;4996458;28;20418;-63
2021/07/20 02:51:14;;;;;;;11.80;7.93;;;15.70;99.90;;;;;;4996797;28;20424;-63
2021/07/20 02:53:42;;;;;;;9.07;6.37;;;15.70;99.90;;;;;;4996468;28;20423;-63
2021/07/20 02:56:11;;;;;;;11.13;7.57;;;15.60;99.90;;;;;;4996654;28;20461;-63
2021/07/20 02:58:38;;;;;;;8.00;5.47;;;15.60;99.90;;;;;;4996503;28;20407;-63
2021/07/20 03:01:06;;;;;;;8.97;7.17;;;15.60;99.90;;;;;;4996762;28;20501;-63
2021/07/20 03:03:31;;;;;;;10.70;7.13;;;15.60;99.90;;;;;;4996635;28;20429;-63
2021/07/20 03:05:58;;;;;;;8.80;6.57;;;15.60;99.90;;;;;;4996440;28;20437;-63
2021/07/20 03:08:29;;;;;;;9.10;7.40;;;15.60;99.90;;;;;;4995767;28;20236;-64
2021/07/20 03:10:56;;;;;;;8.57;7.03;;;15.50;99.90;;;;;;4996037;28;20433;-63
2021/07/20 03:13:24;;;;;;;7.07;6.37;;;15.50;99.90;;;;;;4996542;28;20443;-63
2021/07/20 03:15:50;;;;;;;10.00;7.17;;;15.50;99.90;;;;;;4995390;28;20964;-63
2021/07/20 03:18:16;;;;;;;10.10;6.50;;;15.50;99.90;;;;;;4996246;28;20433;-64
2021/07/20 03:20:43;;;;;;;9.63;7.67;;;15.40;99.90;;;;;;4996397;28;20405;-64
2021/07/20 03:23:11;;;;;;;7.87;6.00;;;15.50;99.90;;;;;;4996131;28;20441;-63
2021/07/20 03:25:37;;;;;;;8.07;7.27;;;15.50;99.90;;;;;;4995915;28;20448;-63
2021/07/20 03:28:05;;;;;;;10.23;6.37;;;15.50;99.90;;;;;;4996034;28;20398;-63
2021/07/20 03:30:33;;;;;;;9.53;7.00;;;15.50;99.90;;;;;;4995871;28;20421;-63
2021/07/20 03:33:01;;;;;;;9.93;6.53;;;15.40;99.90;;;;;;4995871;28;20449;-64
2021/07/20 03:35:27;;;;;;;10.60;7.07;;;15.40;99.90;;;;;;4995743;28;20783;-64
2021/07/20 03:37:54;;;;;;;11.07;6.90;;;15.40;99.90;;;;;;4995962;28;20429;-65
2021/07/20 03:40:20;;;;;;;9.80;6.50;;;15.40;99.90;;;;;;4995970;28;20762;-63
2021/07/20 03:42:46;;;;;;;8.47;6.20;;;15.40;99.90;;;;;;4995693;28;20413;-64
2021/07/20 03:45:12;;;;;;;12.23;7.40;;;15.30;99.90;;;;;;4995538;28;20408;-63
2021/07/20 03:47:41;;;;;;;8.00;6.33;;;15.40;99.90;;;;;;4995592;28;20442;-64
2021/07/20 03:50:08;;;;;;;10.10;7.73;;;15.30;99.90;;;;;;4994881;28;20504;-64
2021/07/20 03:52:36;;;;;;;9.40;6.03;;;15.30;99.90;;;;;;4996155;28;20938;-64
2021/07/20 03:55:03;;;;;;;9.17;6.50;;;15.30;99.90;;;;;;4995513;28;20716;-63
2021/07/20 03:57:29;;;;;;;9.93;7.07;;;15.30;99.90;;;;;;4995548;28;20800;-62
2021/07/20 04:00:00;;;;;;;8.60;7.13;;;15.30;99.90;;;;;;4993761;28;20430;-63
2021/07/20 04:02:29;;;;;;;11.47;8.47;;;15.30;99.90;;;;;;4995663;28;20503;-64
2021/07/20 04:04:57;;;;;;;13.17;8.30;;;15.30;99.90;;;;;;4995367;28;20789;-64
2021/07/20 04:07:23;;;;;;;8.87;6.10;;;15.30;99.90;;;;;;4995348;28;20406;-63
2021/07/20 04:09:49;;;;;;;11.87;8.47;;;15.30;99.90;;;;;;4994808;28;20928;-64
2021/07/20 04:12:16;;;;;;;12.33;7.43;;;15.30;99.90;;;;;;4995137;28;20415;-62
2021/07/20 04:14:43;;;;;;;10.83;7.70;;;15.30;99.90;;;;;;4995232;28;20471;-64
2021/07/20 04:17:11;;;;;;;8.63;6.90;;;15.30;99.90;;;;;;4995090;28;20471;-63
2021/07/20 04:19:37;;;;;;;8.70;5.83;;;15.30;99.90;;;;;;4994910;28;20407;-63
2021/07/20 04:22:04;;;;;;;7.47;5.90;;;15.40;99.90;;;;;;4995502;28;20395;-63
2021/07/20 04:24:31;;;;;;;11.83;8.07;;;15.40;99.90;;;;;;4994977;28;20479;-64
2021/07/20 04:26:58;;;;;;;10.20;7.50;;;15.30;99.90;;;;;;4994072;28;20445;-63
2021/07/20 04:29:26;;;;;;;8.87;7.07;;;15.40;99.90;;;;;;4994521;28;20414;-64
2021/07/20 04:31:54;;;;;;;11.33;8.07;;;15.40;99.90;;;;;;4995019;28;20450;-63
2021/07/20 04:34:20;;;;;;;12.70;8.33;;;15.40;99.90;;;;;;4994945;28;20816;-63
2021/07/20 04:36:47;;;;;;;12.90;7.47;;;15.60;99.90;;;;;;4994608;28;20463;-63
2021/07/20 04:39:13;;;;;;;9.90;6.17;;;15.80;99.90;;;;;;4992864;28;20496;-63
2021/07/20 04:41:40;;;;;;;9.47;6.47;;;15.90;99.90;;;;;;4994767;28;20406;-64
2021/07/20 04:44:07;;;;;;;8.17;6.20;;;16.00;99.90;;;;;;4994689;28;20505;-63
2021/07/20 04:46:33;;;;;;;10.63;6.83;;;16.10;99.90;;;;;;4994121;28;21082;-64
2021/07/20 04:49:00;;;;;;;11.83;7.37;;;16.20;99.90;;;;;;4994026;28;20419;-64
2021/07/20 04:51:28;;;;;;;11.27;7.97;;;16.30;99.90;;;;;;4994399;28;20415;-64
2021/07/20 04:53:55;;;;;;;11.10;6.10;;;16.40;99.90;;;;;;4994430;28;20417;-63
2021/07/20 04:56:22;;;;;;;10.10;7.13;;;16.50;99.90;;;;;;4994642;28;20463;-64
2021/07/20 04:58:48;;;;;;;7.93;6.07;;;16.50;99.90;;;;;;4993995;28;20417;-64
2021/07/20 05:01:14;;;;;;;11.27;7.13;;;16.60;99.90;;;;;;4992923;28;20427;-64
2021/07/20 05:03:40;;;;;;;10.70;7.30;;;16.70;99.90;;;;;;4994897;28;20170;-63
2021/07/20 05:06:07;;;;;;;8.77;6.73;;;16.80;99.90;;;;;;4993018;28;20471;-64
2021/07/20 05:08:38;;;;;;;9.97;6.60;;;16.90;99.90;;;;;;4994152;28;20448;-62
2021/07/20 05:11:05;;;;;;;8.70;5.80;;;16.90;99.90;;;;;;4994394;28;20521;-63
2021/07/20 05:13:32;;;;;;;8.80;6.43;;;17.00;99.90;;;;;;4994147;28;20421;-64
2021/07/20 05:16:00;;;;;;;13.17;8.00;;;17.10;99.90;;;;;;4993977;28;20469;-63
2021/07/20 05:18:26;;;;;;;9.00;6.10;;;17.10;99.90;;;;;;4993725;28;20425;-63
2021/07/20 05:20:57;;;;;;;18.80;11.77;;;17.20;99.90;;;;;;4993986;28;20498;-63
2021/07/20 05:23:24;;;;;;;15.20;10.43;;;17.30;99.90;;;;;;4994154;28;20402;-64
2021/07/20 05:25:59;;;;;;;12.60;7.73;;;17.40;99.90;;;;;;4993844;28;20460;-63
2021/07/20 05:28:26;;;;;;;6.97;6.00;;;17.60;99.90;;;;;;4993600;28;20489;-64
2021/07/20 05:30:58;;;;;;;9.57;7.20;;;17.70;99.90;;;;;;4993843;28;20436;-63
2021/07/20 05:33:24;;;;;;;9.60;7.20;;;17.70;99.90;;;;;;4993995;28;20414;-64
2021/07/20 05:35:53;;;;;;;8.00;6.20;;;17.80;99.90;;;;;;4993915;28;20959;-65
2021/07/20 05:38:19;;;;;;;8.90;6.40;;;17.80;99.90;;;;;;4995944;28;20499;-63
2021/07/20 05:40:46;;;;;;;8.57;6.67;;;17.90;99.90;;;;;;5000368;28;20438;-63
2021/07/20 05:43:12;;;;;;;7.57;5.80;;;18.10;99.90;;;;;;5000366;28;20791;-69
2021/07/20 05:45:38;;;;;;;8.83;6.33;;;18.40;99.90;;;;;;5000012;28;20481;-63
2021/07/20 05:48:05;;;;;;;10.57;6.27;;;18.80;99.90;;;;;;4999970;28;20415;-63
2021/07/20 05:50:30;;;;;;;11.50;6.37;;;19.20;99.90;;;;;;5000499;28;20418;-63
2021/07/20 05:52:59;;;;;;;10.30;6.60;;;19.60;99.90;;;;;;5000486;28;20497;-63
2021/07/20 05:55:26;;;;;;;12.67;7.63;;;19.90;99.90;;;;;;5000396;28;20207;-62
2021/07/20 05:57:53;;;;;;;8.70;6.20;;;20.10;99.90;;;;;;4999824;28;20454;-62
2021/07/20 06:00:24;;;;;;;9.13;5.87;;;20.30;99.90;;;;;;5000231;28;20410;-64
2021/07/20 06:02:52;;;;;;;7.13;6.03;;;20.50;99.90;;;;;;5000329;28;20912;-63
2021/07/20 06:05:20;;;;;;;7.93;5.60;;;20.60;99.90;;;;;;5000298;28;20489;-62
2021/07/20 06:07:46;;;;;;;8.07;5.50;;;20.60;99.90;;;;;;5000104;28;20417;-63
2021/07/20 06:10:17;;;;;;;9.93;6.00;;;20.40;99.90;;;;;;4999983;28;20414;-64
2021/07/20 06:12:43;;;;;;;9.07;6.47;;;20.40;99.90;;;;;;5000179;28;20750;-63
2021/07/20 06:15:10;;;;;;;10.53;6.00;;;20.10;99.90;;;;;;5000063;28;20414;-63
2021/07/20 06:17:36;;;;;;;6.20;5.40;;;19.90;99.90;;;;;;5000048;28;20456;-63
2021/07/20 06:20:03;;;;;;;6.47;5.40;;;19.60;99.90;;;;;;4999824;28;20884;-62
2021/07/20 06:22:33;;;;;;;13.20;6.43;;;19.60;99.90;;;;;;5000050;28;20411;-63
2021/07/20 06:25:03;;;;;;;22.47;15.50;;;19.50;99.90;;;;;;4999713;28;20927;-63
2021/07/20 06:27:30;;;;;;;11.83;7.20;;;19.60;99.90;;;;;;4999456;28;20520;-63
2021/07/20 06:29:58;;;;;;;9.20;5.73;;;19.80;99.90;;;;;;4999665;28;20419;-61
2021/07/20 06:32:26;;;;;;;10.17;6.27;;;19.80;99.90;;;;;;4999886;28;20417;-64
2021/07/20 06:34:52;;;;;;;8.00;5.10;;;19.90;99.90;;;;;;4999624;28;20475;-65
2021/07/20 06:37:19;;;;;;;8.47;5.60;;;20.10;99.90;;;;;;5000477;28;20442;-65
2021/07/20 06:39:46;;;;;;;8.53;6.37;;;20.20;99.90;;;;;;4999527;28;20936;-67
2021/07/20 06:42:13;;;;;;;13.23;6.47;;;20.40;99.90;;;;;;4999567;28;20509;-66
2021/07/20 06:44:40;;;;;;;8.30;5.30;;;20.30;99.90;;;;;;4999831;28;20494;-62
2021/07/20 06:47:06;;;;;;;8.40;5.40;;;20.40;99.90;;;;;;4999847;28;20457;-63
2021/07/20 06:49:36;;;;;;;5.83;4.57;;;20.60;99.90;;;;;;4997896;28;20549;-63
2021/07/20 06:52:04;;;;;;;9.83;5.97;;;20.70;99.90;;;;;;4996754;28;20407;-63
2021/07/20 06:54:30;;;;;;;8.00;4.90;;;20.80;99.90;;;;;;4996865;28;20518;-63
2021/07/20 06:56:59;;;;;;;8.70;5.23;;;21.00;99.90;;;;;;4996181;28;20499;-63
2021/07/20 06:59:26;;;;;;;15.10;6.10;;;21.10;99.90;;;;;;4996207;28;20746;-63
2021/07/20 07:01:53;;;;;;;9.53;6.30;;;21.20;99.90;;;;;;4996388;28;20414;-63
2021/07/20 07:04:35;;;;;;;8.33;6.70;;;21.30;99.90;;;;;;4996304;28;20472;-64
2021/07/20 07:07:02;;;;;;;12.17;5.43;;;21.30;99.90;;;;;;4996379;28;20430;-64
2021/07/20 07:09:30;;;;;;;9.00;5.77;;;21.40;99.90;;;;;;4996018;28;20425;-63
2021/07/20 07:11:58;;;;;;;6.97;4.93;;;21.60;99.90;;;;;;4995228;28;20411;-61
2021/07/20 07:14:24;;;;;;;6.93;5.20;;;21.60;99.90;;;;;;4996223;28;20437;-63
2021/07/20 07:16:52;;;;;;;6.10;5.50;;;21.70;99.90;;;;;;4995760;28;20555;-64
2021/07/20 07:19:20;;;;;;;8.27;4.70;;;21.90;99.90;;;;;;4995918;28;20460;-62
2021/07/20 07:21:47;;;;;;;7.67;5.07;;;22.10;99.90;;;;;;4996274;28;20403;-63
2021/07/20 07:24:14;;;;;;;9.20;6.60;;;22.00;99.90;;;;;;4996048;28;20414;-63
2021/07/20 07:26:41;;;;;;;7.23;5.23;;;22.00;99.90;;;;;;4995749;28;20451;-63
2021/07/20 07:29:10;;;;;;;6.57;5.30;;;22.00;99.90;;;;;;4995746;28;20750;-62
2021/07/20 07:31:37;;;;;;;9.70;5.57;;;22.10;99.90;;;;;;4995981;28;20773;-63
2021/07/20 07:34:03;;;;;;;8.23;5.83;;;22.20;99.90;;;;;;4995922;28;20419;-63
2021/07/20 07:36:31;;;;;;;5.90;4.93;;;22.20;99.90;;;;;;4995625;28;20463;-64
2021/07/20 07:39:02;;;;;;;6.67;5.60;;;22.50;99.90;;;;;;4995249;28;20742;-64
2021/07/20 07:41:30;;;;;;;10.17;6.80;;;22.90;99.90;;;;;;4995439;28;20400;-64
2021/07/20 07:43:56;;;;;;;7.10;5.50;;;23.60;99.90;;;;;;4996424;28;20454;-65
2021/07/20 07:46:23;;;;;;;5.30;4.70;;;24.30;99.90;;;;;;4995307;28;20444;-65
2021/07/20 07:48:49;;;;;;;6.97;5.17;;;24.90;98.90;;;;;;4995115;28;20493;-64
2021/07/20 07:51:15;;;;;;;6.17;5.27;;;25.60;98.30;;;;;;4995499;28;20497;-63
2021/07/20 07:53:41;;;;;;;6.47;5.67;;;26.40;97.40;;;;;;4994361;28;20238;-64
2021/07/20 07:56:07;;;;;;;7.70;5.43;;;27.40;96.20;;;;;;4994696;28;20563;-63
2021/07/20 07:58:33;;;;;;;5.47;4.67;;;28.30;92.60;;;;;;4995307;28;20423;-63
2021/07/20 08:01:02;;;;;;;4.70;4.30;;;29.10;91.60;;;;;;4994675;28;20396;-64
2021/07/20 08:03:33;;;;;;;7.10;5.30;;;29.90;89.10;;;;;;4994663;28;20787;-63
2021/07/20 08:06:03;;;;;;;6.30;5.70;;;30.40;86.50;;;;;;4995215;28;20405;-63
2021/07/20 08:08:31;;;;;;;4.73;4.33;;;30.90;82.30;;;;;;4994782;28;20374;-66
2021/07/20 08:10:58;;;;;;;6.23;5.10;;;30.90;80.50;;;;;;4995175;28;20381;-65
2021/07/20 08:13:24;;;;;;;8.83;6.83;;;30.90;77.90;;;;;;4995409;28;20559;-64
2021/07/20 08:15:52;;;;;;;6.57;5.70;;;31.10;79.00;;;;;;4994790;28;21004;-63
2021/07/20 08:18:21;;;;;;;6.20;5.60;;;31.00;77.90;;;;;;4994887;28;20394;-63
2021/07/20 08:20:51;;;;;;;6.30;5.40;;;31.00;80.40;;;;;;4994874;28;20403;-66
2021/07/20 08:23:19;;;;;;;5.50;5.00;;;31.00;77.90;;;;;;4995248;28;20753;-63
2021/07/20 08:25:47;;;;;;;5.80;5.30;;;30.70;79.20;;;;;;4994644;28;20431;-63
2021/07/20 08:28:26;;;;;;;6.40;5.77;;;30.70;79.00;;;;;;4994537;28;20411;-64
2021/07/20 08:30:56;;;;;;;6.27;5.67;;;31.10;80.40;;;;;;4994904;28;20404;-64
2021/07/20 08:33:25;;;;;;;5.70;5.20;;;31.90;78.80;;;;;;4994871;28;20432;-64
2021/07/20 08:35:54;;;;;;;5.37;4.87;;;32.60;74.60;;;;;;4994643;28;20404;-64
2021/07/20 08:38:21;;;;;;;7.20;6.10;;;32.90;70.80;;;;;;4994498;28;20438;-64
2021/07/20 08:40:50;;;;;;;6.20;5.60;;;33.10;70.80;;;;;;4994955;28;20500;-63
2021/07/20 08:43:40;;;;;;;10.93;5.60;;;32.80;70.20;;;;;;4994672;28;20436;-64
2021/07/20 08:46:08;;;;;;;8.10;4.97;;;32.50;70.40;;;;;;4994333;28;20458;-64
2021/07/20 08:48:46;;;;;;;6.17;5.57;;;32.70;69.50;;;;;;4994266;28;20418;-64
2021/07/20 08:51:18;;;;;;;6.07;5.07;;;32.60;69.70;;;;;;4994480;28;20740;-64
2021/07/20 08:53:51;;;;;;;5.93;4.90;;;32.60;68.90;;;;;;4994530;28;20406;-65
2021/07/20 08:56:22;;;;;;;5.53;4.93;;;33.00;70.40;;;;;;4994399;28;20468;-64
2021/07/20 08:58:55;;;;;;;5.33;4.83;;;33.40;69.00;;;;;;4994112;28;20386;-64
2021/07/20 09:01:43;;;;;;;6.27;5.47;;;33.80;69.00;;;;;;4993010;28;20422;-65
2021/07/20 09:04:20;;;;;;;5.33;4.83;;;34.10;64.80;;;;;;4994357;28;20403;-64
2021/07/20 09:06:53;;;;;;;5.57;5.07;;;33.80;64.90;;;;;;4993975;28;20450;-65
2021/07/20 09:09:46;;;;;;;6.53;5.57;;;33.60;65.80;;;;;;4994076;28;20410;-65
2021/07/20 09:12:15;;;;;;;6.07;5.30;;;33.50;66.50;;;;;;4992059;28;20415;-65
2021/07/20 09:15:19;;;;;;;5.37;4.77;;;33.60;64.40;;;;;;4993712;28;20430;-64
2021/07/20 09:17:54;;;;;;;5.83;5.30;;;33.70;72.00;;;;;;4993461;28;20405;-64
2021/07/20 09:20:23;;;;;;;6.70;6.10;;;34.10;62.00;;;;;;4994243;28;20421;-64
2021/07/20 09:23:00;;;;;;;5.47;4.97;;;33.70;61.60;;;;;;4994319;28;20382;-65
2021/07/20 09:25:50;;;;;;;6.37;5.77;;;33.80;62.80;;;;;;4993961;28;20418;-64
2021/07/20 09:28:25;;;;;;;8.53;5.20;;;34.10;64.20;;;;;;4993636;28;20472;-65
2021/07/20 09:30:53;;;;;;;8.10;5.90;;;34.30;61.00;;;;;;4993938;28;20826;-63
2021/07/20 09:33:53;;;;;;;7.87;5.80;;;34.10;61.90;;;;;;4993942;28;20921;-64
2021/07/20 09:36:32;;;;;;;6.47;5.87;;;32.90;65.80;;;;;;4993892;28;20420;-64
2021/07/20 09:39:16;;;;;;;8.23;6.23;;;32.20;66.50;;;;;;4993799;28;20438;-64
2021/07/20 09:41:46;;;;;;;9.53;5.37;;;31.90;65.80;;;;;;4993995;28;20395;-63
2021/07/20 09:44:25;;;;;;;7.63;5.17;;;31.30;66.60;;;;;;4993708;28;20976;-64
2021/07/20 09:47:05;;;;;;;9.40;5.33;;;30.70;68.80;;;;;;4993819;28;20816;-64
2021/07/20 09:49:55;;;;;;;8.13;6.73;;;30.80;71.80;;;;;;4993502;28;20845;-63
2021/07/20 09:52:42;;;;;;;7.13;6.03;;;31.20;69.50;;;;;;4993884;28;20934;-62
2021/07/20 09:55:38;;;;;;;7.37;6.43;;;32.00;67.90;;;;;;4993858;28;20757;-65
2021/07/20 09:58:11;;;;;;;6.53;5.93;;;32.70;65.70;;;;;;4993112;28;20947;-65
2021/07/20 10:00:56;;;;;;;6.67;6.07;;;33.50;66.60;;;;;;4993790;28;20489;-63
2021/07/20 10:03:45;;;;;;;6.73;5.90;;;34.20;62.50;;;;;;4993634;28;20533;-66
2021/07/20 10:06:20;;;;;;;5.43;5.03;;;34.60;60.00;;;;;;4993512;28;20462;-66
2021/07/20 10:08:56;;;;;;;7.10;6.37;;;35.00;60.70;;;;;;4993305;28;20758;-66
2021/07/20 10:11:27;;;;;;;7.90;7.07;;;35.30;60.80;;;;;;4992516;28;20410;-66
2021/07/20 10:14:24;;;;;;;6.57;6.00;;;34.90;58.40;;;;;;4993495;28;20541;-66
2021/07/20 10:17:01;;;;;;;7.03;6.33;;;34.40;59.90;;;;;;4993554;28;20473;-64
2021/07/20 10:19:45;;;;;;;7.47;6.13;;;34.00;61.60;;;;;;4991988;28;20986;-65
2021/07/20 10:22:14;;;;;;;7.50;6.73;;;32.80;62.00;;;;;;4993442;28;20939;-65
2021/07/20 10:24:46;;;;;;;8.20;7.40;;;32.10;63.60;;;;;;4993788;28;20397;-64
2021/07/20 10:27:17;;;;;;;9.60;6.93;;;31.20;64.10;;;;;;4996717;28;20449;-64
2021/07/20 10:29:58;;;;;;;7.13;6.03;;;30.60;64.90;;;;;;4995634;28;20770;-65
2021/07/20 10:32:49;;;;;;;7.30;6.23;;;30.70;68.70;;;;;;4997248;28;20555;-65
2021/07/20 10:35:27;;;;;;;8.00;6.30;;;31.00;66.20;;;;;;4996967;28;20417;-64
2021/07/20 10:37:57;;;;;;;7.73;6.47;;;31.30;69.30;;;;;;4996936;28;20389;-64
2021/07/20 10:40:25;;;;;;;7.70;6.37;;;31.20;66.50;;;;;;4997126;28;20395;-64
2021/07/20 10:42:57;;;;;;;6.30;5.40;;;31.10;66.80;;;;;;4996966;28;20418;-64
2021/07/20 10:45:24;;;;;;;7.40;5.40;;;31.50;77.20;;;;;;4996717;28;20457;-64
2021/07/20 10:48:15;;;;;;;10.07;5.77;;;31.60;86.20;;;;;;4996630;28;20433;-64
2021/07/20 10:50:59;;;;;;;7.33;6.50;;;31.20;85.00;;;;;;4995138;28;20973;-64
2021/07/20 10:53:27;;;;;;;7.10;6.00;;;31.30;63.60;;;;;;4996572;28;20472;-64
2021/07/20 10:56:26;;;;;;;6.40;5.70;;;31.30;64.70;;;;;;4996608;28;20419;-64
2021/07/20 10:59:04;;;;;;;7.17;5.80;;;31.30;64.20;;;;;;4995272;28;20766;-64
2021/07/20 11:01:57;;;;;;;8.50;6.20;;;31.50;67.30;;;;;;4996455;28;20450;-64
2021/07/20 11:04:36;;;;;;;8.23;7.43;;;31.60;66.20;;;;;;4993439;28;20401;-64
2021/07/20 11:07:04;;;;;;;8.33;7.03;;;31.20;65.40;;;;;;4996369;28;20445;-64
2021/07/20 11:09:31;;;;;;;9.13;7.13;;;30.70;65.10;;;;;;4995925;28;20374;-64
2021/07/20 11:12:02;;;;;;;8.07;6.70;;;30.60;65.50;;;;;;4995967;28;20430;-64
2021/07/20 11:14:37;;;;;;;10.37;7.47;;;30.40;63.80;;;;;;4996513;28;20397;-64
2021/07/20 11:17:05;;;;;;;7.27;6.10;;;30.30;63.10;;;;;;4996156;28;20413;-64
2021/07/20 11:19:32;;;;;;;9.57;6.10;;;29.60;65.00;;;;;;4995814;28;20395;-64
2021/07/20 11:21:58;;;;;;;8.67;7.30;;;28.70;68.00;;;;;;4995918;28;20808;-64
2021/07/20 11:24:25;;;;;;;7.80;6.20;;;27.90;71.60;;;;;;4995939;28;20733;-62
2021/07/20 11:26:52;;;;;;;7.80;6.10;;;27.50;73.80;;;;;;4995810;28;20463;-63
2021/07/20 11:29:19;;;;;;;9.53;5.90;;;27.10;75.10;;;;;;4995613;28;20438;-63
2021/07/20 11:31:57;;;;;;;10.43;6.57;;;26.80;78.10;;;;;;4996282;28;20381;-63
2021/07/20 11:34:28;;;;;;;11.30;6.70;;;26.80;79.50;;;;;;4995331;28;20770;-63
2021/07/20 11:37:04;;;;;;;9.37;5.60;;;26.80;77.80;;;;;;4995009;28;20424;-62
2021/07/20 11:39:36;;;;;;;9.20;5.73;;;26.70;78.40;;;;;;4995412;28;20509;-64
2021/07/20 11:42:10;;;;;;;8.70;6.70;;;26.40;75.30;;;;;;4995829;28;20389;-63
2021/07/20 11:44:51;;;;;;;7.30;6.43;;;26.30;81.30;;;;;;4995617;28;20534;-62
2021/07/20 11:47:34;;;;;;;10.07;5.47;;;26.30;81.30;;;;;;4995188;28;20437;-62
2021/07/20 11:50:09;;;;;;;9.07;6.10;;;26.20;76.20;;;;;;4995372;28;20779;-62
2021/07/20 11:52:54;;;;;;;9.23;6.13;;;26.10;75.40;;;;;;4995628;28;20459;-63
2021/07/20 11:55:32;;;;;;;7.97;5.03;;;26.00;77.20;;;;;;4995563;28;20422;-62
2021/07/20 11:58:22;;;;;;;8.10;6.10;;;26.00;77.80;;;;;;4995408;28;20402;-63
2021/07/20 12:01:27;;;;;;;8.50;6.20;;;25.90;77.20;;;;;;4995285;28;20416;-62
2021/07/20 12:04:30;;;;;;;8.90;6.27;;;25.90;76.30;;;;;;4995241;28;20468;-62
2021/07/20 12:07:11;;;;;;;10.60;6.20;;;25.70;76.90;;;;;;4994726;28;20487;-63
2021/07/20 12:09:46;;;;;;;8.93;6.07;;;25.70;80.70;;;;;;4992585;28;20779;-64
2021/07/20 12:12:14;;;;;;;8.97;6.17;;;25.80;81.50;;;;;;4993460;28;20839;-67
2021/07/20 12:14:41;;;;;;;7.03;5.60;;;25.90;82.10;;;;;;4994844;28;20434;-66
2021/07/20 12:17:07;;;;;;;7.33;5.33;;;26.00;78.30;;;;;;4994920;28;20463;-66
2021/07/20 12:19:37;;;;;;;7.03;5.50;;;26.00;74.80;;;;;;4992991;28;20442;-66
2021/07/20 12:22:08;;;;;;;9.43;5.67;;;25.90;75.80;;;;;;4993121;28;20421;-65
2021/07/20 12:24:36;;;;;;;10.27;5.57;;;25.90;77.20;;;;;;4993029;28;20929;-66
2021/07/20 12:27:06;;;;;;;6.90;5.77;;;25.70;77.20;;;;;;4993696;28;20469;-64
2021/07/20 12:29:39;;;;;;;5.80;4.93;;;25.60;76.40;;;;;;4992308;28;20430;-67
2021/07/20 12:32:05;;;;;;;9.27;5.13;;;25.60;75.40;;;;;;4993266;28;20438;-64
2021/07/20 12:34:31;;;;;;;8.10;5.50;;;25.30;75.40;;;;;;4993352;28;20443;-64
2021/07/20 12:36:57;;;;;;;5.67;4.60;;;25.20;76.10;;;;;;4993224;28;20477;-64
2021/07/20 12:39:23;;;;;;;6.67;5.10;;;25.10;75.80;;;;;;4993035;28;20555;-65
2021/07/20 12:41:50;;;;;;;8.10;5.43;;;24.90;76.60;;;;;;4993525;28;20419;-65
2021/07/20 12:44:17;;;;;;;7.07;5.83;;;24.80;78.30;;;;;;4994198;28;20426;-65
2021/07/20 12:46:44;;;;;;;8.57;5.47;;;24.70;81.10;;;;;;4994473;28;20494;-65
2021/07/20 12:49:12;;;;;;;6.20;3.90;;;24.60;78.20;;;;;;4993684;28;20442;-65
2021/07/20 12:51:47;;;;;;;6.53;5.30;;;24.60;80.40;;;;;;4994399;28;20469;-64
2021/07/20 12:54:13;;;;;;;7.57;4.80;;;24.70;77.60;;;;;;4994468;28;20418;-65
2021/07/20 12:56:39;;;;;;;9.57;5.83;;;24.80;77.50;;;;;;4994234;28;20429;-65
2021/07/20 12:59:06;;;;;;;9.60;6.00;;;24.90;78.90;;;;;;4993748;28;20418;-65
2021/07/20 13:01:32;;;;;;;8.10;5.57;;;25.00;81.00;;;;;;4994270;28;20195;-65
2021/07/20 13:04:00;;;;;;;8.00;5.60;;;25.10;78.50;;;;;;4994209;28;20418;-65